This is the latest recevied weather packets stored in our database for station/object F4ETJ-1. If no packets are shown the sender has not sent any weather packets the latest 10 day(s).
| Time | Temp. | Humidity | Pressure | Rain* | Wind** | Luminosity | Snow |
|---|---|---|---|---|---|---|---|
| 1777983800 | 15° C | 83% | 1008.6 hPa | 0.25 mm | - | - | - |
| 1777978034 | 16.67° C | 71% | 1008.5 hPa | 0 mm | - | - | - |
| 1777977674 | 16.67° C | 71% | 1008.5 hPa | 0 mm | - | - | - |
| 1777976955 | 16.67° C | 71% | 1008.4 hPa | 0 mm | - | - | - |
| 1777972630 | 16.67° C | 74% | 1008.5 hPa | 0 mm | - | - | - |
| 1777971910 | 16.11° C | 74% | 1008.4 hPa | 0 mm | - | - | - |
| 1777969026 | 16.67° C | 74% | 1008.5 hPa | 0 mm | - | - | - |
| 1777966144 | 15.56° C | 79% | 1008.6 hPa | 0 mm | - | - | - |
| 1777958219 | 11.67° C | 91% | 1008.8 hPa | 0 mm | - | - | - |
| 1777937042 | 12.78° C | 88% | 1009.9 hPa | 0 mm | - | - | - |
| 1777936680 | 12.78° C | 88% | 1009.8 hPa | 0 mm | - | - | - |
| 1777936322 | 12.78° C | 88% | 1009.8 hPa | 0 mm | - | - | - |
| 1777935964 | 12.78° C | 88% | 1009.8 hPa | 0 mm | - | - | - |
| 1777935601 | 13.33° C | 87% | 1009.8 hPa | 0 mm | - | - | - |
| 1777934520 | 13.33° C | 87% | 1009.9 hPa | 0 mm | - | - | - |
| 1777934163 | 13.33° C | 86% | 1009.9 hPa | 0 mm | - | - | - |
| 1777933799 | 13.33° C | 86% | 1009.9 hPa | 0 mm | - | - | - |
| 1777931997 | 13.33° C | 87% | 1010.1 hPa | 0 mm | - | - | - |
| 1777929117 | 13.33° C | 86% | 1010.2 hPa | 0 mm | - | - | - |
| 1777928394 | 13.89° C | 86% | 1010.2 hPa | 0 mm | - | - | - |
| 1777927313 | 13.89° C | 85% | 1010.2 hPa | 0 mm | - | - | - |
| 1777924070 | 14.44° C | 84% | 1009.8 hPa | 0 mm | - | - | - |
| 1777923710 | 14.44° C | 84% | 1009.8 hPa | 0 mm | - | - | - |
| 1777922989 | 14.44° C | 84% | 1009.7 hPa | 0 mm | - | - | - |
| 1777921551 | 15° C | 82% | 1009.6 hPa | 0 mm | - | - | - |
* Rain latest hour (hover to see other rain measurements)
** Current wind speed in m/s (hover to see current wind gust speed)